Time;durP1;ratioP1;P1;durP2;ratioP2;P2;SDS_P1;SDS_P2;PMS_P1;PMS_P2;Temp;Humidity;BMP_temperature;BMP_pressure;BME280_temperature;BME280_humidity;BME280_pressure;Samples;Min_cycle;Max_cycle;Signal;HPM_P1;HPM_P2
2024/01/08 00:01:48;;;;;;;24.80;13.30;;;-8.60;99.90;;;;;;5051280;28;20055;-78
2024/01/08 00:04:14;;;;;;;17.40;9.82;;;-8.60;99.90;;;;;;5060024;28;20021;-78
2024/01/08 00:06:40;;;;;;;20.60;9.73;;;-8.60;99.90;;;;;;5047654;28;20025;-78
2024/01/08 00:09:05;;;;;;;33.73;12.83;;;-8.60;99.90;;;;;;5050708;28;20021;-78
2024/01/08 00:11:31;;;;;;;23.53;11.17;;;-8.70;99.90;;;;;;5048086;28;20033;-78
2024/01/08 00:13:57;;;;;;;20.37;11.80;;;-8.70;99.90;;;;;;5054780;28;20024;-78
2024/01/08 00:16:22;;;;;;;16.43;7.07;;;-8.70;99.90;;;;;;5044757;28;20459;-78
2024/01/08 00:18:48;;;;;;;24.00;12.73;;;-8.80;99.90;;;;;;5052037;28;20477;-78
2024/01/08 00:21:14;;;;;;;17.70;10.03;;;-8.80;99.90;;;;;;5050645;28;20021;-78
2024/01/08 00:23:39;;;;;;;27.00;11.60;;;-8.80;99.90;;;;;;5049068;28;20459;-78
2024/01/08 00:26:05;;;;;;;21.73;12.30;;;-8.80;99.90;;;;;;5038633;28;20023;-78
2024/01/08 00:28:31;;;;;;;20.83;8.83;;;-8.80;99.90;;;;;;5050073;28;20382;-78
2024/01/08 00:30:56;;;;;;;26.87;13.30;;;-8.90;99.90;;;;;;5050311;28;20020;-78
2024/01/08 00:33:22;;;;;;;13.50;7.77;;;-8.90;99.90;;;;;;5060907;28;20506;-78
2024/01/08 00:35:48;;;;;;;19.03;8.63;;;-9.00;99.90;;;;;;5067624;28;20033;-78
2024/01/08 00:38:13;;;;;;;25.37;11.10;;;-9.00;99.90;;;;;;5070651;28;20029;-78
2024/01/08 00:40:39;;;;;;;23.77;11.53;;;-9.10;99.90;;;;;;5070839;28;20424;-78
2024/01/08 00:43:05;;;;;;;29.80;12.37;;;-9.10;99.90;;;;;;5070138;28;20017;-78
2024/01/08 00:45:30;;;;;;;24.13;12.97;;;-9.10;99.90;;;;;;5039851;28;20025;-78
2024/01/08 00:47:56;;;;;;;17.10;10.37;;;-9.20;99.90;;;;;;5066933;28;20017;-79
2024/01/08 00:50:22;;;;;;;24.73;11.60;;;-9.30;99.90;;;;;;5071914;28;20028;-79
2024/01/08 00:52:48;;;;;;;18.80;9.50;;;-9.30;99.90;;;;;;5054033;28;20028;-78
2024/01/08 00:55:14;;;;;;;17.63;8.83;;;-9.30;99.90;;;;;;5070481;28;20024;-77
2024/01/08 00:57:40;;;;;;;23.90;10.97;;;-9.30;99.90;;;;;;5052365;28;20035;-79
2024/01/08 01:00:07;;;;;;;25.80;10.40;;;-9.40;99.90;;;;;;5071789;28;20020;-78
2024/01/08 01:02:33;;;;;;;21.87;9.43;;;-9.30;99.90;;;;;;5067332;28;20029;-78
2024/01/08 01:04:58;;;;;;;18.03;8.47;;;-9.40;99.90;;;;;;5069890;28;20027;-78
2024/01/08 01:07:26;;;;;;;25.40;13.53;;;-9.40;99.90;;;;;;5068000;28;20021;-78
2024/01/08 01:09:51;;;;;;;23.50;13.13;;;-9.50;99.90;;;;;;5048424;28;20021;-79
2024/01/08 01:12:17;;;;;;;32.83;14.33;;;-9.60;99.90;;;;;;5067758;28;20089;-79
2024/01/08 01:14:43;;;;;;;21.40;11.40;;;-9.50;99.90;;;;;;5068049;28;20020;-79
2024/01/08 01:17:08;;;;;;;21.27;9.67;;;-9.50;99.90;;;;;;5059653;28;20017;-78
2024/01/08 01:19:34;;;;;;;20.00;12.27;;;-9.50;99.90;;;;;;5053684;28;20016;-79
2024/01/08 01:22:00;;;;;;;27.30;12.70;;;-9.50;99.90;;;;;;5073794;28;20382;-78
2024/01/08 01:24:25;;;;;;;27.00;11.53;;;-9.50;99.90;;;;;;5054244;28;20033;-79
2024/01/08 01:26:51;;;;;;;23.77;11.87;;;-9.50;99.90;;;;;;5071033;28;20074;-78
2024/01/08 01:29:17;;;;;;;28.53;11.97;;;-9.60;99.90;;;;;;5054459;28;20028;-81
2024/01/08 01:31:43;;;;;;;27.83;13.13;;;-9.60;99.90;;;;;;5074801;28;20032;-79
2024/01/08 01:34:10;;;;;;;21.47;9.67;;;-9.60;99.90;;;;;;5073609;28;20040;-80
2024/01/08 01:36:36;;;;;;;25.67;11.77;;;-9.60;99.90;;;;;;5056643;28;20448;-78
2024/01/08 01:39:03;;;;;;;17.67;9.50;;;-9.60;99.90;;;;;;5055769;28;20486;-79
2024/01/08 01:41:28;;;;;;;30.53;13.13;;;-9.60;99.90;;;;;;5073396;28;20066;-78
2024/01/08 01:43:54;;;;;;;24.63;12.87;;;-9.60;99.90;;;;;;5055238;28;20017;-78
2024/01/08 01:46:27;;;;;;;35.17;15.70;;;-9.60;99.90;;;;;;5069678;28;20025;-78
2024/01/08 01:48:53;;;;;;;27.03;14.17;;;-9.50;99.90;;;;;;5050176;28;20466;-78
2024/01/08 01:51:19;;;;;;;17.10;10.30;;;-9.50;99.90;;;;;;5072851;28;20037;-78
2024/01/08 01:53:45;;;;;;;19.27;8.63;;;-9.60;99.90;;;;;;5053102;28;20021;-78
2024/01/08 01:56:12;;;;;;;17.70;8.07;;;-9.60;99.90;;;;;;5066779;28;20024;-78
2024/01/08 01:58:38;;;;;;;23.50;11.50;;;-9.60;99.90;;;;;;5049903;28;20048;-79
2024/01/08 02:01:04;;;;;;;16.27;9.57;;;-9.70;99.90;;;;;;5071814;28;20068;-78
2024/01/08 02:03:31;;;;;;;20.53;10.50;;;-9.70;99.90;;;;;;5050927;28;20021;-79
2024/01/08 02:05:57;;;;;;;21.03;9.17;;;-9.80;99.90;;;;;;5067153;28;20020;-78
2024/01/08 02:08:24;;;;;;;31.50;12.93;;;-9.80;99.90;;;;;;5066845;28;20022;-78
2024/01/08 02:10:51;;;;;;;12.70;7.80;;;-9.80;99.90;;;;;;5072718;28;20031;-79
2024/01/08 02:13:16;;;;;;;24.90;12.37;;;-9.80;99.90;;;;;;5054584;28;20020;-79
2024/01/08 02:15:42;;;;;;;26.37;12.07;;;-9.70;99.90;;;;;;5054660;28;20129;-78
2024/01/08 02:18:08;;;;;;;19.70;10.10;;;-9.70;99.90;;;;;;5052244;28;20020;-78
2024/01/08 02:20:33;;;;;;;22.70;11.77;;;-9.70;99.90;;;;;;5072733;28;20465;-78
2024/01/08 02:22:59;;;;;;;25.33;13.00;;;-9.80;99.90;;;;;;5071236;28;20055;-79
2024/01/08 02:25:26;;;;;;;23.97;13.23;;;-9.70;99.90;;;;;;5072064;28;20091;-78
2024/01/08 02:27:52;;;;;;;16.97;8.50;;;-9.70;99.90;;;;;;5069713;28;20025;-80
2024/01/08 02:30:18;;;;;;;19.57;10.90;;;-9.90;99.90;;;;;;5070986;28;20406;-78
2024/01/08 02:32:44;;;;;;;27.40;12.83;;;-9.90;99.90;;;;;;5071711;28;20050;-78
2024/01/08 02:35:09;;;;;;;30.13;13.83;;;-9.90;99.90;;;;;;5056015;28;20017;-78
2024/01/08 02:37:35;;;;;;;30.40;13.43;;;-9.90;99.90;;;;;;5081355;28;20113;-78
2024/01/08 02:40:01;;;;;;;17.23;7.73;;;-9.90;99.90;;;;;;5067023;28;20024;-77
2024/01/08 02:42:27;;;;;;;16.87;8.93;;;-9.90;99.90;;;;;;5073287;28;20059;-77
2024/01/08 02:44:53;;;;;;;17.27;6.97;;;-9.90;99.90;;;;;;5071798;28;20056;-78
2024/01/08 02:47:19;;;;;;;34.10;12.40;;;-10.00;99.90;;;;;;5076221;28;20023;-78
2024/01/08 02:49:45;;;;;;;23.40;9.97;;;-10.10;99.90;;;;;;5071852;28;20016;-78
2024/01/08 02:52:10;;;;;;;17.53;9.67;;;-10.10;99.90;;;;;;5052631;28;20025;-77
2024/01/08 02:54:36;;;;;;;26.70;13.80;;;-10.20;99.90;;;;;;5081662;28;20082;-77
2024/01/08 02:57:03;;;;;;;21.53;10.37;;;-10.10;99.90;;;;;;5053844;28;20475;-78
2024/01/08 02:59:29;;;;;;;26.17;11.80;;;-10.10;99.90;;;;;;5071754;28;20466;-78
2024/01/08 03:01:54;;;;;;;30.63;12.93;;;-10.10;99.90;;;;;;5059014;28;20022;-78
2024/01/08 03:04:20;;;;;;;22.07;10.47;;;-10.10;99.90;;;;;;5065069;28;20025;-78
2024/01/08 03:06:45;;;;;;;23.60;12.57;;;-10.10;99.90;;;;;;5072387;28;20675;-78
2024/01/08 03:09:11;;;;;;;28.40;9.50;;;-10.20;99.90;;;;;;5057654;28;20027;-78
2024/01/08 03:11:37;;;;;;;17.97;9.73;;;-10.30;99.90;;;;;;5072672;28;20035;-78
2024/01/08 03:14:02;;;;;;;22.43;10.10;;;-10.30;99.90;;;;;;5072793;28;20028;-79
2024/01/08 03:16:28;;;;;;;23.37;13.83;;;-10.30;99.90;;;;;;5073310;28;20500;-78
2024/01/08 03:18:54;;;;;;;20.47;10.00;;;-10.30;99.90;;;;;;5072932;28;20480;-79
2024/01/08 03:21:19;;;;;;;26.77;13.17;;;-10.30;99.90;;;;;;5055402;28;20016;-78
2024/01/08 03:23:45;;;;;;;28.03;13.17;;;-10.20;99.90;;;;;;5071780;28;20023;-79
2024/01/08 03:26:11;;;;;;;21.23;11.33;;;-10.20;99.90;;;;;;5072832;28;20024;-78
2024/01/08 03:28:36;;;;;;;13.90;9.07;;;-10.30;99.90;;;;;;5072960;28;20378;-78
2024/01/08 03:31:02;;;;;;;23.07;11.40;;;-10.30;99.90;;;;;;5072810;28;20043;-79
2024/01/08 03:33:28;;;;;;;20.53;11.17;;;-10.30;99.90;;;;;;5054784;28;20110;-78
2024/01/08 03:35:55;;;;;;;21.53;11.60;;;-10.30;99.90;;;;;;5055114;28;20505;-79
2024/01/08 03:38:20;;;;;;;20.93;9.40;;;-10.30;99.90;;;;;;5054626;28;20021;-78
2024/01/08 03:40:46;;;;;;;22.10;11.00;;;-10.40;99.90;;;;;;5072922;28;20359;-78
2024/01/08 03:43:12;;;;;;;24.40;11.73;;;-10.30;99.90;;;;;;5072657;28;20024;-78
2024/01/08 03:45:37;;;;;;;16.80;8.17;;;-10.30;99.90;;;;;;5072773;28;20021;-79
2024/01/08 03:48:04;;;;;;;22.43;10.70;;;-10.40;99.90;;;;;;5072535;28;20427;-79
2024/01/08 03:50:29;;;;;;;22.63;11.50;;;-10.40;99.90;;;;;;5072435;28;20025;-79
2024/01/08 03:52:55;;;;;;;20.93;11.17;;;-10.40;99.90;;;;;;5054789;28;20390;-77
2024/01/08 03:55:20;;;;;;;17.70;9.67;;;-10.40;99.90;;;;;;5072532;28;20619;-77
2024/01/08 03:57:46;;;;;;;23.47;11.87;;;-10.40;99.90;;;;;;5072682;28;20031;-79
2024/01/08 04:00:12;;;;;;;8.47;6.53;;;-10.40;99.90;;;;;;5072110;28;20024;-79
2024/01/08 04:02:40;;;;;;;28.20;12.53;;;-10.40;99.90;;;;;;5054635;28;20074;-77
2024/01/08 04:05:11;;;;;;;21.27;10.47;;;-10.40;99.90;;;;;;5054361;28;20039;-77
2024/01/08 04:07:37;;;;;;;19.60;10.13;;;-10.40;99.90;;;;;;5065183;28;20016;-77
2024/01/08 04:10:04;;;;;;;24.13;12.63;;;-10.40;99.90;;;;;;5072253;28;20021;-78
2024/01/08 04:12:30;;;;;;;24.17;11.33;;;-10.50;99.90;;;;;;5072194;28;20033;-78
2024/01/08 04:14:55;;;;;;;18.73;9.10;;;-10.40;99.90;;;;;;5054331;28;20045;-78
2024/01/08 04:17:21;;;;;;;24.53;12.23;;;-10.40;99.90;;;;;;5072302;28;20025;-78
2024/01/08 04:19:47;;;;;;;24.57;11.57;;;-10.50;99.90;;;;;;5054364;28;20021;-77
2024/01/08 04:22:13;;;;;;;18.03;9.90;;;-10.50;99.90;;;;;;5054524;28;20013;-78
2024/01/08 04:24:38;;;;;;;21.43;10.77;;;-10.50;99.90;;;;;;5054399;28;20052;-78
2024/01/08 04:27:04;;;;;;;30.13;14.47;;;-10.50;99.90;;;;;;5071095;28;20032;-78
2024/01/08 04:29:29;;;;;;;27.47;13.17;;;-10.50;99.90;;;;;;5072072;28;20410;-80
2024/01/08 04:31:56;;;;;;;33.60;14.37;;;-10.50;99.90;;;;;;5054230;28;20032;-78
2024/01/08 04:34:22;;;;;;;21.00;12.13;;;-10.50;99.90;;;;;;5072092;28;20029;-78
2024/01/08 04:36:48;;;;;;;29.13;12.17;;;-10.50;99.90;;;;;;5072451;28;20047;-78
2024/01/08 04:39:13;;;;;;;22.17;11.03;;;-10.60;99.90;;;;;;5072062;28;20016;-78
2024/01/08 04:41:39;;;;;;;20.87;9.93;;;-10.50;99.90;;;;;;5053898;28;20166;-78
2024/01/08 04:44:05;;;;;;;20.93;11.00;;;-10.60;99.90;;;;;;5071576;28;20033;-79
2024/01/08 04:46:32;;;;;;;22.13;10.57;;;-10.60;99.90;;;;;;5054108;28;20556;-79
2024/01/08 04:48:57;;;;;;;21.07;10.00;;;-10.60;99.90;;;;;;5072085;28;20025;-81
2024/01/08 04:51:25;;;;;;;19.10;11.13;;;-10.60;99.90;;;;;;5074061;28;20028;-81
2024/01/08 04:53:51;;;;;;;32.33;13.63;;;-10.60;99.90;;;;;;5076006;28;20017;-80
2024/01/08 04:56:21;;;;;;;25.40;12.47;;;-10.60;99.90;;;;;;5075958;28;20381;-79
2024/01/08 04:58:46;;;;;;;24.30;12.97;;;-10.60;99.90;;;;;;5075634;28;20074;-79
2024/01/08 05:01:12;;;;;;;24.43;12.00;;;-10.60;99.90;;;;;;5075814;28;20040;-79
2024/01/08 05:03:38;;;;;;;18.60;10.23;;;-10.60;99.90;;;;;;5075389;28;20034;-79
2024/01/08 05:06:03;;;;;;;29.03;13.23;;;-10.50;99.90;;;;;;5050308;28;20528;-79
2024/01/08 05:08:29;;;;;;;24.47;10.47;;;-10.50;99.90;;;;;;5070722;28;20496;-80
2024/01/08 05:10:54;;;;;;;22.57;10.17;;;-10.50;99.90;;;;;;5051230;28;20398;-78
2024/01/08 05:13:20;;;;;;;23.60;12.47;;;-10.50;99.90;;;;;;5057645;28;20059;-78
2024/01/08 05:15:46;;;;;;;29.20;12.33;;;-10.40;99.90;;;;;;5074086;28;20107;-79
2024/01/08 05:18:11;;;;;;;27.97;12.67;;;-10.40;99.90;;;;;;5074962;28;20159;-78
2024/01/08 05:20:37;;;;;;;25.33;10.13;;;-10.50;99.90;;;;;;5041189;28;20605;-78
2024/01/08 05:23:03;;;;;;;21.00;9.97;;;-10.60;99.90;;;;;;5053617;28;20044;-79
2024/01/08 05:25:31;;;;;;;23.13;12.33;;;-10.60;99.90;;;;;;5075006;28;20386;-77
2024/01/08 05:27:57;;;;;;;24.43;10.97;;;-10.60;99.90;;;;;;5056960;28;20031;-81
2024/01/08 05:30:22;;;;;;;21.00;10.00;;;-10.60;99.90;;;;;;5075096;28;20096;-78
2024/01/08 05:32:50;;;;;;;22.83;11.63;;;-10.60;99.90;;;;;;5074826;28;20501;-80
2024/01/08 05:35:16;;;;;;;82.03;27.57;;;-10.60;99.90;;;;;;5075161;28;20111;-79
2024/01/08 05:37:43;;;;;;;69.23;28.27;;;-10.60;99.90;;;;;;5057131;28;20478;-78
2024/01/08 05:40:09;;;;;;;327.10;103.73;;;-10.60;99.90;;;;;;5057076;28;20017;-82
2024/01/08 05:42:34;;;;;;;78.47;29.93;;;-10.60;99.90;;;;;;5075105;28;20017;-80
2024/01/08 05:45:00;;;;;;;63.43;26.63;;;-10.50;99.90;;;;;;5074869;28;20374;-80
2024/01/08 05:47:26;;;;;;;39.20;16.50;;;-10.60;99.90;;;;;;5075104;28;20035;-80
2024/01/08 05:49:51;;;;;;;72.83;26.80;;;-10.60;99.90;;;;;;5056786;28;20033;-77
2024/01/08 05:52:17;;;;;;;119.37;40.10;;;-10.60;99.90;;;;;;5056864;28;20119;-79
2024/01/08 05:54:43;;;;;;;45.73;19.93;;;-10.60;99.90;;;;;;5074963;28;20016;-77
2024/01/08 05:57:09;;;;;;;41.50;16.33;;;-10.50;99.90;;;;;;5074556;28;20578;-77
2024/01/08 05:59:34;;;;;;;61.67;24.10;;;-10.50;99.90;;;;;;5073984;28;20032;-77
2024/01/08 06:02:00;;;;;;;24.13;10.43;;;-10.40;99.90;;;;;;5072952;28;20016;-80
2024/01/08 06:04:25;;;;;;;28.03;14.57;;;-10.50;99.90;;;;;;5074333;28;20063;-80
2024/01/08 06:06:52;;;;;;;45.30;21.07;;;-10.50;99.90;;;;;;5056265;28;20100;-80
2024/01/08 06:09:18;;;;;;;42.43;17.63;;;-10.60;99.90;;;;;;5054206;28;20051;-80
2024/01/08 06:11:43;;;;;;;42.90;18.07;;;-10.60;99.90;;;;;;5073733;28;20036;-80
2024/01/08 06:14:10;;;;;;;35.40;16.73;;;-10.60;99.90;;;;;;5074037;28;20142;-80
2024/01/08 06:16:36;;;;;;;24.97;12.90;;;-10.50;99.90;;;;;;5075245;28;20539;-80
2024/01/08 06:19:02;;;;;;;29.17;12.40;;;-10.50;99.90;;;;;;5084445;28;20107;-80
2024/01/08 06:21:28;;;;;;;38.13;16.40;;;-10.50;99.90;;;;;;5073623;28;20082;-80
2024/01/08 06:23:53;;;;;;;34.13;15.37;;;-10.60;99.90;;;;;;5074129;28;20470;-80
2024/01/08 06:26:20;;;;;;;21.00;10.57;;;-10.60;99.90;;;;;;5073710;28;20473;-78
2024/01/08 06:28:45;;;;;;;30.83;15.60;;;-10.60;99.90;;;;;;5072388;28;20078;-78
2024/01/08 06:31:15;;;;;;;22.40;11.03;;;-10.60;99.90;;;;;;5052351;28;20484;-78
2024/01/08 06:33:42;;;;;;;32.43;16.10;;;-10.60;99.90;;;;;;5059397;28;20073;-78
2024/01/08 06:36:07;;;;;;;28.93;14.70;;;-10.60;99.90;;;;;;5035624;28;20025;-78
2024/01/08 06:38:33;;;;;;;25.07;11.90;;;-10.60;99.90;;;;;;5035190;28;20032;-78
2024/01/08 06:40:59;;;;;;;24.90;13.20;;;-10.60;99.90;;;;;;5034235;28;20048;-81
2024/01/08 06:43:24;;;;;;;29.03;11.30;;;-10.60;99.90;;;;;;5066690;28;20017;-79
2024/01/08 06:45:50;;;;;;;25.27;11.80;;;-10.70;99.90;;;;;;5033571;28;20056;-78
2024/01/08 06:48:16;;;;;;;24.77;13.60;;;-10.70;99.90;;;;;;5039909;28;20026;-79
2024/01/08 06:50:41;;;;;;;23.90;11.57;;;-10.70;99.90;;;;;;5052618;28;20122;-78
2024/01/08 06:53:10;;;;;;;35.93;16.20;;;-10.70;99.90;;;;;;5033309;28;20040;-78
2024/01/08 06:55:35;;;;;;;24.03;12.93;;;-10.70;99.90;;;;;;5051600;28;20060;-79
2024/01/08 06:58:03;;;;;;;25.93;12.73;;;-10.60;99.90;;;;;;5050247;28;20447;-78
2024/01/08 07:00:29;;;;;;;27.07;11.97;;;-10.50;99.90;;;;;;5028282;28;20111;-78
2024/01/08 07:02:55;;;;;;;32.73;14.97;;;-10.50;99.90;;;;;;5049559;28;20047;-82
2024/01/08 07:05:21;;;;;;;25.83;10.80;;;-10.50;99.90;;;;;;5049447;28;20084;-78
2024/01/08 07:07:46;;;;;;;31.43;15.20;;;-10.50;99.90;;;;;;5049839;28;20056;-79
2024/01/08 07:10:12;;;;;;;29.50;13.87;;;-10.50;99.90;;;;;;5053427;28;20180;-79
2024/01/08 07:12:38;;;;;;;25.67;13.07;;;-10.50;99.90;;;;;;5049264;28;20037;-80
2024/01/08 07:15:04;;;;;;;24.73;11.07;;;-10.40;99.90;;;;;;5050108;28;20715;-82
2024/01/08 07:17:30;;;;;;;27.30;12.13;;;-10.40;99.90;;;;;;5049939;28;20025;-79
2024/01/08 07:19:56;;;;;;;20.00;11.63;;;-10.40;99.90;;;;;;5031039;28;20029;-79
2024/01/08 07:22:22;;;;;;;28.63;12.63;;;-10.40;99.90;;;;;;5032290;28;20438;-79
2024/01/08 07:24:48;;;;;;;34.03;14.47;;;-10.50;99.90;;;;;;5036686;28;20025;-79
2024/01/08 07:27:13;;;;;;;25.10;11.50;;;-10.50;99.90;;;;;;5030708;28;20471;-78
2024/01/08 07:29:39;;;;;;;16.33;9.33;;;-10.50;99.90;;;;;;5031560;28;20689;-78
2024/01/08 07:32:05;;;;;;;26.10;12.13;;;-10.50;99.90;;;;;;5051071;28;20056;-79
2024/01/08 07:34:30;;;;;;;24.03;10.60;;;-10.50;99.90;;;;;;5035058;28;20068;-78
2024/01/08 07:36:56;;;;;;;28.43;12.83;;;-10.40;99.90;;;;;;5051740;28;20528;-78
2024/01/08 07:39:22;;;;;;;29.27;11.67;;;-10.40;99.90;;;;;;5051685;28;21361;-83
2024/01/08 07:41:49;;;;;;;14.10;9.07;;;-10.30;99.90;;;;;;5059672;28;20488;-80
2024/01/08 07:44:15;;;;;;;22.20;10.97;;;-10.40;99.90;;;;;;5068237;28;20047;-78
2024/01/08 07:46:42;;;;;;;20.97;11.50;;;-10.30;99.90;;;;;;5051984;28;20120;-79
2024/01/08 07:49:09;;;;;;;30.57;13.10;;;-10.30;99.90;;;;;;5051209;28;20031;-78
2024/01/08 07:51:34;;;;;;;18.80;9.57;;;-10.20;99.90;;;;;;5069603;28;20070;-78
2024/01/08 07:54:00;;;;;;;19.60;9.23;;;-10.20;99.90;;;;;;5050250;28;20009;-82
2024/01/08 07:56:26;;;;;;;14.33;9.07;;;-10.10;99.90;;;;;;5051420;28;20127;-81
2024/01/08 07:58:53;;;;;;;26.57;12.70;;;-10.20;99.90;;;;;;5056000;28;20016;-82
2024/01/08 08:01:18;;;;;;;22.23;10.40;;;-10.10;99.90;;;;;;5051919;28;20106;-80
2024/01/08 08:03:44;;;;;;;31.13;13.27;;;-10.10;99.90;;;;;;5035836;28;20103;-81
2024/01/08 08:06:10;;;;;;;30.17;11.80;;;-10.00;99.90;;;;;;5051876;28;20029;-81
2024/01/08 08:08:36;;;;;;;17.60;8.77;;;-10.00;99.90;;;;;;5034123;28;20025;-81
2024/01/08 08:11:03;;;;;;;25.43;11.00;;;-10.10;99.90;;;;;;5035077;28;20310;-80
2024/01/08 08:13:30;;;;;;;26.17;12.90;;;-9.90;99.90;;;;;;5038673;28;20112;-81
2024/01/08 08:15:56;;;;;;;29.03;12.33;;;-9.80;99.90;;;;;;5053800;28;20482;-80
2024/01/08 08:18:22;;;;;;;25.67;12.07;;;-9.90;98.70;;;;;;5054179;28;20024;-80
2024/01/08 08:20:48;;;;;;;27.17;11.20;;;-9.90;99.20;;;;;;5051722;28;20383;-80
2024/01/08 08:23:14;;;;;;;18.87;10.37;;;-9.80;99.90;;;;;;5047392;28;20020;-79
2024/01/08 08:25:40;;;;;;;17.83;11.07;;;-10.00;97.90;;;;;;5034649;28;20052;-79
2024/01/08 08:28:06;;;;;;;21.03;11.27;;;-9.90;98.60;;;;;;5058985;28;20032;-79
2024/01/08 08:30:32;;;;;;;39.77;15.30;;;-9.90;99.10;;;;;;5040618;28;20119;-78
2024/01/08 08:32:58;;;;;;;24.70;12.53;;;-10.00;99.90;;;;;;5048039;28;20067;-78
2024/01/08 08:35:25;;;;;;;14.63;7.47;;;-9.90;99.40;;;;;;5076890;28;20098;-78
2024/01/08 08:37:56;;;;;;;16.70;10.97;;;-9.90;98.40;;;;;;5077898;28;20550;-76
2024/01/08 08:40:22;;;;;;;18.83;11.40;;;-9.90;97.80;;;;;;5062755;28;20037;-80
2024/01/08 08:42:48;;;;;;;7.53;5.20;;;-9.80;97.90;;;;;;5069804;28;20031;-77
2024/01/08 08:45:17;;;;;;;26.00;13.20;;;-9.90;96.20;;;;;;5085446;28;20059;-79
2024/01/08 08:47:43;;;;;;;23.63;10.77;;;-9.80;96.80;;;;;;5086415;28;20051;-77
2024/01/08 08:50:09;;;;;;;29.90;14.07;;;-9.70;95.80;;;;;;5090083;28;20054;-77
2024/01/08 08:52:37;;;;;;;31.57;14.50;;;-9.70;95.40;;;;;;5076907;28;20559;-77
2024/01/08 08:55:04;;;;;;;27.63;12.77;;;-9.80;96.00;;;;;;5069919;28;20020;-77
2024/01/08 08:57:30;;;;;;;29.23;13.43;;;-9.60;96.60;;;;;;5067137;28;20040;-77
2024/01/08 08:59:56;;;;;;;28.47;12.30;;;-9.70;95.30;;;;;;5069526;28;20081;-77
2024/01/08 09:02:22;;;;;;;33.10;14.70;;;-9.70;94.60;;;;;;5077576;28;20044;-77
2024/01/08 09:04:49;;;;;;;25.97;13.93;;;-9.60;94.30;;;;;;5074370;28;20016;-77
2024/01/08 09:07:22;;;;;;;25.13;12.40;;;-9.50;93.50;;;;;;5071125;28;20107;-76
2024/01/08 09:09:48;;;;;;;;;;;-9.40;92.90;;;;;;5073788;28;20028;-77
2024/01/08 09:12:14;;;;;;;15.83;9.00;;;-9.50;91.30;;;;;;5071138;28;19916;-77
2024/01/08 09:14:41;;;;;;;19.90;9.53;;;-9.80;91.10;;;;;;5066893;28;20035;-76
2024/01/08 09:17:06;;;;;;;15.13;10.50;;;-9.80;93.00;;;;;;5068551;28;20052;-77
2024/01/08 09:19:34;;;;;;;20.03;9.87;;;-9.60;93.30;;;;;;5083562;28;20376;-77
2024/01/08 09:22:00;;;;;;;26.17;11.77;;;-9.60;92.30;;;;;;5056875;28;20554;-77
2024/01/08 09:24:26;;;;;;;24.47;14.23;;;-9.60;92.50;;;;;;5055072;28;20028;-78
2024/01/08 09:26:51;;;;;;;29.57;13.63;;;-9.30;93.50;;;;;;5058143;28;20024;-77
2024/01/08 09:29:17;;;;;;;27.97;12.23;;;-9.30;92.00;;;;;;5078265;28;20032;-77
2024/01/08 09:31:44;;;;;;;21.73;12.20;;;-9.30;91.10;;;;;;5079044;28;20037;-77
2024/01/08 09:34:10;;;;;;;30.37;12.43;;;-9.40;90.30;;;;;;5056395;28;20040;-78
2024/01/08 09:36:36;;;;;;;22.00;9.03;;;-9.40;90.90;;;;;;5076395;28;20474;-78
2024/01/08 09:39:02;;;;;;;22.77;11.30;;;-9.50;90.60;;;;;;5056235;28;20040;-78
2024/01/08 09:41:28;;;;;;;33.57;14.60;;;-9.50;91.80;;;;;;5073409;28;20416;-78
2024/01/08 09:43:59;;;;;;;32.43;14.07;;;-9.50;92.00;;;;;;5078178;28;20098;-77
2024/01/08 09:46:28;;;;;;;48.70;19.13;;;-9.40;91.80;;;;;;5078010;28;20024;-77
2024/01/08 09:48:54;;;;;;;24.40;12.60;;;-9.40;91.60;;;;;;5078052;28;20486;-77
2024/01/08 09:51:22;;;;;;;51.93;19.43;;;-9.40;90.30;;;;;;5057108;28;20032;-77
2024/01/08 09:53:48;;;;;;;34.70;13.57;;;-9.30;90.40;;;;;;5077485;28;20110;-78
2024/01/08 09:56:17;;;;;;;29.07;15.13;;;-9.30;89.40;;;;;;5069360;28;20027;-77
2024/01/08 09:58:43;;;;;;;37.13;16.07;;;-9.40;88.90;;;;;;5068690;28;20024;-78
2024/01/08 10:01:09;;;;;;;28.20;14.70;;;-9.60;90.00;;;;;;5051260;28;20051;-77
2024/01/08 10:03:35;;;;;;;29.17;14.20;;;-9.50;90.50;;;;;;5082759;28;20060;-78
2024/01/08 10:06:09;;;;;;;29.53;13.03;;;-9.60;90.60;;;;;;5078481;28;20028;-77
2024/01/08 10:08:35;;;;;;;39.47;15.30;;;-9.40;91.30;;;;;;5082087;28;20036;-78
2024/01/08 10:11:02;;;;;;;32.30;14.27;;;-9.30;90.60;;;;;;5054322;28;20089;-78
2024/01/08 10:13:27;;;;;;;34.93;14.70;;;-9.20;90.00;;;;;;5061315;28;20070;-78
2024/01/08 10:15:53;;;;;;;31.50;11.00;;;-9.20;88.50;;;;;;5075632;28;20025;-78
2024/01/08 10:18:19;;;;;;;29.17;11.83;;;-9.30;87.70;;;;;;5078002;28;20024;-78
2024/01/08 10:20:44;;;;;;;43.27;15.30;;;-9.50;86.80;;;;;;5084621;28;20099;-78
2024/01/08 10:23:12;;;;;;;31.53;12.20;;;-9.50;87.60;;;;;;5060844;28;20019;-78
2024/01/08 10:25:39;;;;;;;28.93;14.87;;;-9.50;87.80;;;;;;5074997;28;20050;-78
2024/01/08 10:28:13;;;;;;;29.60;13.13;;;-9.60;88.30;;;;;;5080314;28;20028;-78
2024/01/08 10:30:42;;;;;;;41.63;16.20;;;-9.60;88.50;;;;;;5062350;28;20537;-78
2024/01/08 10:33:08;;;;;;;31.07;14.80;;;-9.60;89.10;;;;;;5082040;28;20093;-78
2024/01/08 10:35:35;;;;;;;27.57;10.37;;;-9.70;89.40;;;;;;5061755;28;20021;-78
2024/01/08 10:38:01;;;;;;;26.73;9.80;;;-9.90;88.60;;;;;;5064618;28;20012;-78
2024/01/08 10:40:28;;;;;;;25.10;12.80;;;-10.00;89.00;;;;;;5079473;28;20032;-78
2024/01/08 10:42:54;;;;;;;22.20;10.93;;;-10.00;90.20;;;;;;5065193;28;20103;-78
2024/01/08 10:45:20;;;;;;;29.17;12.43;;;-10.10;91.10;;;;;;5064176;28;20017;-78
2024/01/08 10:48:11;;;;;;;26.77;11.87;;;-10.00;91.60;;;;;;5064822;28;20016;-78
2024/01/08 10:50:45;;;;;;;22.40;11.53;;;-10.00;91.70;;;;;;5077428;28;20401;-78
2024/01/08 10:53:23;;;;;;;42.57;18.83;;;-10.00;92.10;;;;;;5085979;28;20481;-78
2024/01/08 10:55:51;;;;;;;123.23;50.60;;;-9.90;91.40;;;;;;5065578;28;20020;-78
2024/01/08 10:58:29;;;;;;;71.83;21.83;;;-9.80;90.60;;;;;;5068426;28;20029;-78
2024/01/08 11:00:56;;;;;;;36.03;13.50;;;-9.80;90.50;;;;;;5071020;28;20013;-78
2024/01/08 11:03:21;;;;;;;41.63;15.37;;;-9.90;89.90;;;;;;5078479;28;20017;-79
2024/01/08 11:05:51;;;;;;;27.30;12.03;;;-9.90;89.70;;;;;;5083621;28;20496;-78
2024/01/08 11:08:20;;;;;;;22.33;10.57;;;-9.80;89.50;;;;;;5066702;28;20024;-78
2024/01/08 11:10:45;;;;;;;25.07;11.57;;;-9.70;88.60;;;;;;5058816;28;20104;-78
2024/01/08 11:13:13;;;;;;;19.17;10.43;;;-9.70;88.40;;;;;;5057200;28;20557;-78
2024/01/08 11:15:43;;;;;;;30.47;13.07;;;-9.70;87.10;;;;;;5081771;28;20020;-78
2024/01/08 11:18:26;;;;;;;34.57;14.37;;;-9.60;87.20;;;;;;5078234;28;20032;-79
2024/01/08 11:20:52;;;;;;;36.70;12.30;;;-9.60;87.60;;;;;;5049021;28;20021;-78
2024/01/08 11:23:42;;;;;;;44.00;16.07;;;-9.50;87.20;;;;;;5058712;28;20489;-78
2024/01/08 11:26:18;;;;;;;40.00;15.23;;;-9.40;87.40;;;;;;5066432;28;20037;-79
2024/01/08 11:29:11;;;;;;;35.73;13.73;;;-9.30;87.00;;;;;;5085691;28;20020;-78
2024/01/08 11:31:45;;;;;;;27.17;12.63;;;-9.20;87.00;;;;;;5089211;28;20063;-79
2024/01/08 11:34:29;;;;;;;35.63;13.37;;;-9.20;85.80;;;;;;5071808;28;20048;-79
2024/01/08 11:37:22;;;;;;;26.27;11.20;;;-9.00;87.20;;;;;;5071314;28;20028;-78
2024/01/08 11:39:50;;;;;;;38.23;16.03;;;-9.00;85.90;;;;;;5056288;28;20024;-78
2024/01/08 11:42:18;;;;;;;26.57;14.17;;;-8.90;85.70;;;;;;5073858;28;20025;-78
2024/01/08 11:44:44;;;;;;;27.67;12.50;;;-8.90;85.30;;;;;;5058422;28;20013;-78
2024/01/08 11:47:10;;;;;;;25.40;12.80;;;-9.00;84.80;;;;;;5075150;28;20027;-79
2024/01/08 11:49:35;;;;;;;24.07;12.03;;;-9.00;84.30;;;;;;5076960;28;20508;-79
2024/01/08 11:52:01;;;;;;;17.30;8.40;;;-9.10;85.10;;;;;;5056431;28;20131;-78
2024/01/08 11:54:27;;;;;;;29.30;10.90;;;-9.10;85.00;;;;;;5058341;28;20021;-79
2024/01/08 11:56:53;;;;;;;33.30;13.83;;;-9.20;85.00;;;;;;5070993;28;20029;-78
2024/01/08 11:59:36;;;;;;;15.37;8.37;;;-9.00;86.10;;;;;;5060906;28;20021;-78
2024/01/08 12:02:22;;;;;;;31.88;12.63;;;-9.10;84.50;;;;;;5084437;28;20020;-78
2024/01/08 12:04:56;;;;;;;27.53;12.87;;;-9.00;84.10;;;;;;5080495;28;20052;-78
2024/01/08 12:07:27;;;;;;;26.10;11.43;;;-9.10;83.30;;;;;;5077271;28;20101;-78
2024/01/08 12:09:54;;;;;;;34.53;13.67;;;-9.10;83.20;;;;;;5074549;28;20021;-78
2024/01/08 12:12:23;;;;;;;25.60;12.23;;;-9.20;82.80;;;;;;5076067;28;20410;-78
2024/01/08 12:14:49;;;;;;;22.40;10.33;;;-9.20;84.30;;;;;;5056836;28;20017;-79
2024/01/08 12:17:16;;;;;;;24.03;11.20;;;-9.20;83.30;;;;;;5073646;28;20024;-79
2024/01/08 12:19:52;;;;;;;18.23;9.93;;;-9.20;83.10;;;;;;5060882;28;20027;-79
2024/01/08 12:22:18;;;;;;;22.70;11.37;;;-9.20;83.40;;;;;;5067800;28;20043;-78